createdAt,value
2022-09-30T00:01:29.436Z,100614.44
2022-09-30T00:03:57.529Z,100617.91
2022-09-30T00:06:27.007Z,100619.66
2022-09-30T00:08:54.418Z,100617.03
2022-09-30T00:11:26.086Z,100623.09
2022-09-30T00:13:53.610Z,100615.28
2022-09-30T00:16:22.604Z,100623.94
2022-09-30T00:18:50.036Z,100623.91
2022-09-30T00:21:17.619Z,100621.28
2022-09-30T00:23:45.363Z,100634.25
2022-09-30T00:26:19.126Z,100622.06
2022-09-30T00:28:50.378Z,100630.69
2022-09-30T00:31:19.733Z,100618.50
2022-09-30T00:34:07.155Z,100630.63
2022-09-30T00:36:49.773Z,100623.66
2022-09-30T00:39:21.499Z,100632.31
2022-09-30T00:41:52.387Z,100624.50
2022-09-30T00:44:47.000Z,100626.22
2022-09-30T00:47:57.032Z,100630.50
2022-09-30T00:50:34.160Z,100627.91
2022-09-30T00:53:32.483Z,100619.16
2022-09-30T00:56:14.359Z,100623.53
2022-09-30T00:59:07.212Z,100633.94
2022-09-30T01:01:36.396Z,100628.72
2022-09-30T01:04:13.295Z,100630.41
2022-09-30T01:06:41.602Z,100630.41
2022-09-30T01:09:09.569Z,100633.00
2022-09-30T01:11:36.706Z,100634.72
2022-09-30T01:14:09.912Z,100634.72
2022-09-30T01:17:00.619Z,100634.69
2022-09-30T01:20:18.718Z,100632.91
2022-09-30T01:23:30.129Z,100634.59
2022-09-30T01:26:59.016Z,100638.91
2022-09-30T01:29:53.737Z,100638.03
2022-09-30T01:33:04.347Z,100638.84
2022-09-30T01:35:54.618Z,100644.88
2022-09-30T01:38:50.072Z,100642.25
2022-09-30T01:41:42.432Z,100642.22
2022-09-30T01:44:41.755Z,100640.47
2022-09-30T01:47:25.410Z,100642.19
2022-09-30T01:50:16.215Z,100636.97
2022-09-30T01:53:23.965Z,100635.25
2022-09-30T01:56:20.775Z,100640.44
2022-09-30T01:59:01.980Z,100641.25
2022-09-30T02:01:39.231Z,100633.47
2022-09-30T02:04:17.016Z,100637.81
2022-09-30T02:06:50.727Z,100634.31
2022-09-30T02:09:28.624Z,100652.47
2022-09-30T02:12:00.043Z,100657.59
2022-09-30T02:14:41.475Z,100650.63
2022-09-30T02:17:30.215Z,100653.19
2022-09-30T02:20:19.404Z,100650.59
2022-09-30T02:22:52.164Z,100648.81
2022-09-30T02:25:27.278Z,100653.16
2022-09-30T02:28:01.459Z,100647.91
2022-09-30T02:30:29.532Z,100654.91
2022-09-30T02:33:12.215Z,100659.22
2022-09-30T02:35:46.881Z,100649.63
2022-09-30T02:38:20.580Z,100654.84
2022-09-30T02:40:57.054Z,100662.63
2022-09-30T02:43:24.310Z,100653.06
2022-09-30T02:46:22.378Z,100664.34
2022-09-30T02:49:05.748Z,100659.94
2022-09-30T02:52:01.911Z,100663.44
2022-09-30T02:55:13.988Z,100661.69
2022-09-30T02:58:03.628Z,100664.22
2022-09-30T03:00:30.676Z,100674.66
2022-09-30T03:03:05.262Z,100672.06
2022-09-30T03:05:32.248Z,100676.41
2022-09-30T03:07:59.142Z,100673.81
2022-09-30T03:10:26.029Z,100674.69
2022-09-30T03:13:40.259Z,100672.91
2022-09-30T03:16:50.600Z,100673.75
2022-09-30T03:19:26.815Z,100670.22
2022-09-30T03:22:11.492Z,100679.72
2022-09-30T03:25:14.946Z,100672.72
2022-09-30T03:28:33.613Z,100684.75
2022-09-30T03:31:27.357Z,100686.44
2022-09-30T03:34:29.106Z,100681.22
2022-09-30T03:37:04.422Z,100687.28
2022-09-30T03:40:00.684Z,100682.97
2022-09-30T03:43:01.420Z,100675.19
2022-09-30T03:45:50.521Z,100684.69
2022-09-30T03:48:20.898Z,100685.50
2022-09-30T03:50:48.419Z,100701.13
2022-09-30T03:53:16.123Z,100689.84
2022-09-30T03:55:52.091Z,100683.75
2022-09-30T03:58:22.134Z,100693.22
2022-09-30T04:00:53.049Z,100701.84
2022-09-30T04:03:22.830Z,100708.75
2022-09-30T04:05:50.211Z,100699.22
2022-09-30T04:08:17.244Z,100708.75
2022-09-30T04:10:44.576Z,100708.75
2022-09-30T04:13:12.532Z,100716.53
2022-09-30T04:15:40.548Z,100716.53
2022-09-30T04:18:07.794Z,100721.75
2022-09-30T04:20:34.799Z,100728.66
2022-09-30T04:23:02.548Z,100715.63
2022-09-30T04:25:30.090Z,100727.81
2022-09-30T04:27:57.071Z,100723.47
2022-09-30T04:30:27.193Z,100726.94
2022-09-30T04:32:55.993Z,100723.38
2022-09-30T04:35:23.605Z,100733.81
2022-09-30T04:37:50.476Z,100734.69
2022-09-30T04:40:17.586Z,100736.38
2022-09-30T04:42:44.523Z,100739.84
2022-09-30T04:45:12.898Z,100744.16
2022-09-30T04:47:45.156Z,100744.97
2022-09-30T04:50:13.316Z,100744.97
2022-09-30T04:52:43.697Z,100763.13
2022-09-30T04:55:11.627Z,100753.59
2022-09-30T04:57:38.797Z,100761.44
2022-09-30T05:00:09.278Z,100767.50
2022-09-30T05:02:36.479Z,100773.53
2022-09-30T05:05:03.960Z,100764.91
2022-09-30T05:07:32.132Z,100774.41
2022-09-30T05:09:59.260Z,100763.09
2022-09-30T05:12:26.348Z,100768.34
2022-09-30T05:14:53.280Z,100771.81
2022-09-30T05:17:20.219Z,100768.34
2022-09-30T05:19:47.244Z,100772.72
2022-09-30T05:22:15.389Z,100771.84
2022-09-30T05:24:42.387Z,100790.88
2022-09-30T05:27:09.391Z,100780.53
2022-09-30T05:29:36.268Z,100785.75
2022-09-30T05:32:03.216Z,100787.50
2022-09-30T05:34:30.947Z,100777.94
2022-09-30T05:36:57.821Z,100796.19
2022-09-30T05:39:24.759Z,100799.63
2022-09-30T05:41:51.643Z,100799.69
2022-09-30T05:44:19.271Z,100797.09
2022-09-30T05:46:46.197Z,100808.41
2022-09-30T05:49:13.165Z,100805.88
2022-09-30T05:51:40.110Z,100808.53
2022-09-30T05:54:07.051Z,100796.41
2022-09-30T05:56:38.218Z,100807.78
2022-09-30T05:59:06.060Z,100810.31
2022-09-30T06:01:33.596Z,100816.53
2022-09-30T06:04:00.831Z,100812.22
2022-09-30T06:06:27.796Z,100811.41
2022-09-30T06:08:54.666Z,100821.88
2022-09-30T06:11:23.438Z,100821.94
2022-09-30T06:13:50.527Z,100829.81
2022-09-30T06:16:18.820Z,100835.94
2022-09-30T06:18:46.111Z,100833.44
2022-09-30T06:21:15.700Z,100837.81
2022-09-30T06:23:43.234Z,100842.28
2022-09-30T06:26:13.426Z,100835.41
2022-09-30T06:28:40.692Z,100832.00
2022-09-30T06:31:08.143Z,100839.88
2022-09-30T06:33:35.361Z,100841.69
2022-09-30T06:36:04.569Z,100839.19
2022-09-30T06:38:32.773Z,100840.13
2022-09-30T06:41:00.702Z,100841.09
2022-09-30T06:43:27.976Z,100842.06
2022-09-30T06:46:06.792Z,100843.00
2022-09-30T06:48:40.956Z,100847.47
2022-09-30T06:51:10.940Z,100848.44
2022-09-30T06:53:39.789Z,100859.78
2022-09-30T06:56:06.737Z,100859.88
2022-09-30T06:58:33.653Z,100853.03
2022-09-30T07:01:03.857Z,100854.84
2022-09-30T07:03:34.518Z,100859.22
2022-09-30T07:06:04.873Z,100857.56
2022-09-30T07:08:33.788Z,100859.41
2022-09-30T07:11:04.512Z,100845.53
2022-09-30T07:13:33.204Z,100856.88
2022-09-30T07:16:00.221Z,100863.03
2022-09-30T07:18:28.781Z,100863.09
2022-09-30T07:20:56.690Z,100857.09
2022-09-30T07:23:27.035Z,100859.72
2022-09-30T07:26:01.733Z,100868.47
2022-09-30T07:28:33.057Z,100871.97
2022-09-30T07:31:31.466Z,100873.78
2022-09-30T07:33:53.540Z,100874.69
2022-09-30T07:36:31.847Z,100879.97
2022-09-30T07:39:00.297Z,100875.63
2022-09-30T07:41:29.134Z,100876.56
2022-09-30T07:43:59.146Z,100880.03
2022-09-30T07:46:30.661Z,100884.41
2022-09-30T07:49:02.146Z,100881.84
2022-09-30T07:51:33.375Z,100881.00
2022-09-30T07:54:05.758Z,100887.97
2022-09-30T07:56:51.245Z,100875.84
2022-09-30T07:59:20.624Z,100877.56
2022-09-30T08:01:48.538Z,100878.47
2022-09-30T08:04:17.343Z,100876.75
2022-09-30T08:06:48.978Z,100879.38
2022-09-30T08:09:19.058Z,100881.97
2022-09-30T08:11:46.092Z,100886.38
2022-09-30T08:14:23.210Z,100879.44
2022-09-30T08:16:50.820Z,100874.19
2022-09-30T08:19:21.387Z,100877.69
2022-09-30T08:21:48.873Z,100885.50
2022-09-30T08:24:16.018Z,100889.84
2022-09-30T08:26:43.923Z,100881.13
2022-09-30T08:29:20.036Z,100886.34
2022-09-30T08:31:48.034Z,100881.13
2022-09-30T08:34:15.083Z,100885.44
2022-09-30T08:36:41.975Z,100901.09
2022-09-30T08:39:10.856Z,100905.44
2022-09-30T08:42:05.004Z,100898.44
2022-09-30T08:44:49.152Z,100901.94
2022-09-30T08:51:29.348Z,100909.66
2022-09-30T08:53:59.574Z,100900.03
2022-09-30T08:56:31.949Z,100901.72
2022-09-30T08:59:20.743Z,100911.28
2022-09-30T09:01:53.930Z,100899.88
2022-09-30T09:04:20.876Z,100902.44
2022-09-30T09:07:07.364Z,100912.84
2022-09-30T09:09:58.865Z,100911.03
2022-09-30T09:13:05.179Z,100910.94
2022-09-30T09:16:02.955Z,100911.78
2022-09-30T09:19:02.972Z,100913.41
2022-09-30T09:21:57.006Z,100917.72
2022-09-30T09:24:30.490Z,100916.81
2022-09-30T09:26:59.389Z,100912.34
2022-09-30T09:29:49.345Z,100923.63
2022-09-30T09:32:18.613Z,100920.00
2022-09-30T09:34:51.718Z,100912.97
2022-09-30T09:38:16.767Z,100918.13
2022-09-30T09:41:18.362Z,100917.13
2022-09-30T09:44:28.135Z,100917.94
2022-09-30T09:47:05.293Z,100916.13
2022-09-30T09:49:41.036Z,100909.03
2022-09-30T09:52:14.287Z,100905.44
2022-09-30T09:54:48.611Z,100907.94
2022-09-30T09:57:24.793Z,100902.53
2022-09-30T10:00:25.712Z,100907.72
2022-09-30T10:03:08.252Z,100898.84
2022-09-30T10:05:42.441Z,100897.81
2022-09-30T10:08:18.511Z,100897.69
2022-09-30T10:11:00.691Z,100889.75
2022-09-30T10:13:44.589Z,100897.50
2022-09-30T10:16:32.652Z,100883.41
2022-09-30T10:19:00.431Z,100879.72
2022-09-30T10:21:29.210Z,100884.94
2022-09-30T10:23:57.639Z,100886.53
2022-09-30T10:29:02.112Z,100886.38
2022-09-30T10:31:36.498Z,100880.13
2022-09-30T10:34:30.862Z,100882.69
2022-09-30T10:37:02.651Z,100886.97
2022-09-30T10:39:34.609Z,100886.88
2022-09-30T10:42:07.428Z,100882.41
2022-09-30T10:44:44.499Z,100878.00
2022-09-30T10:47:16.925Z,100878.84
2022-09-30T10:50:04.821Z,100882.13
2022-09-30T10:52:38.575Z,100885.53
2022-09-30T10:55:19.895Z,100887.22
2022-09-30T10:57:48.982Z,100890.63
2022-09-30T11:00:25.244Z,100890.50
2022-09-30T11:03:03.624Z,100884.28
2022-09-30T11:05:46.696Z,100886.81
2022-09-30T11:08:49.697Z,100886.78
2022-09-30T11:11:27.153Z,100888.47
2022-09-30T11:14:07.497Z,100887.47
2022-09-30T11:17:04.700Z,100887.28
2022-09-30T11:19:44.165Z,100885.34
2022-09-30T11:22:25.946Z,100885.25
2022-09-30T11:24:55.452Z,100888.63
2022-09-30T11:28:03.537Z,100879.03
2022-09-30T11:30:49.418Z,100887.59
2022-09-30T11:33:31.892Z,100883.97
2022-09-30T11:36:12.321Z,100890.94
2022-09-30T11:38:56.513Z,100883.00
2022-09-30T11:41:35.491Z,100880.22
2022-09-30T11:44:36.777Z,100881.91
2022-09-30T11:47:28.138Z,100877.47
2022-09-30T11:50:10.934Z,100875.63
2022-09-30T11:53:34.893Z,100874.66
2022-09-30T11:56:35.589Z,100876.34
2022-09-30T11:59:22.559Z,100878.84
2022-09-30T12:01:54.469Z,100868.16
2022-09-30T12:04:39.793Z,100872.44
2022-09-30T12:07:14.368Z,100867.91
2022-09-30T12:09:48.672Z,100865.16
2022-09-30T12:12:18.949Z,100871.09
2022-09-30T12:14:55.548Z,100869.31
2022-09-30T12:17:50.857Z,100870.13
2022-09-30T12:20:43.680Z,100860.44
2022-09-30T12:23:20.993Z,100865.53
2022-09-30T12:25:56.261Z,100865.41
2022-09-30T12:28:58.906Z,100866.25
2022-09-30T12:31:41.390Z,100873.22
2022-09-30T12:34:38.365Z,100871.34
2022-09-30T12:37:35.961Z,100875.72
2022-09-30T12:40:33.391Z,100870.44
2022-09-30T12:43:25.732Z,100865.25
2022-09-30T12:46:35.407Z,100870.47
2022-09-30T12:49:10.556Z,100867.75
2022-09-30T12:51:43.833Z,100871.19
2022-09-30T12:54:32.468Z,100866.75
2022-09-30T12:57:03.951Z,100865.81
2022-09-30T12:59:34.969Z,100869.22
2022-09-30T13:02:04.460Z,100871.81
2022-09-30T13:04:39.018Z,100876.16
2022-09-30T13:07:14.067Z,100871.84
2022-09-30T13:10:17.195Z,100868.34
2022-09-30T13:12:46.807Z,100869.22
2022-09-30T13:15:44.551Z,100877.13
2022-09-30T13:18:20.567Z,100878.84
2022-09-30T13:21:08.244Z,100881.47
2022-09-30T13:23:51.452Z,100875.34
2022-09-30T13:26:33.438Z,100877.03
2022-09-30T13:29:00.569Z,100875.13
2022-09-30T13:31:30.280Z,100876.91
2022-09-30T13:34:11.017Z,100878.56
2022-09-30T13:36:51.332Z,100881.16
2022-09-30T13:39:35.320Z,100874.03
2022-09-30T13:42:19.128Z,100865.28
2022-09-30T13:45:16.243Z,100868.69
2022-09-30T13:48:00.443Z,100869.59
2022-09-30T13:50:33.857Z,100870.44
2022-09-30T13:53:06.787Z,100872.09
2022-09-30T13:55:42.453Z,100867.66
2022-09-30T13:58:47.044Z,100871.22
2022-09-30T14:01:53.632Z,100869.41
2022-09-30T14:05:16.870Z,100869.41
2022-09-30T14:08:24.941Z,100866.78
2022-09-30T14:11:25.077Z,100859.78
2022-09-30T14:13:58.673Z,100858.91
2022-09-30T14:16:53.090Z,100866.84
2022-09-30T14:20:01.100Z,100867.84
2022-09-30T14:22:30.148Z,100867.81
2022-09-30T14:24:58.095Z,100873.09
2022-09-30T14:27:54.380Z,100877.53
2022-09-30T14:30:23.859Z,100869.69
2022-09-30T14:32:57.985Z,100864.34
2022-09-30T14:35:31.216Z,100866.16
2022-09-30T14:38:09.049Z,100875.88
2022-09-30T14:40:42.463Z,100870.66
2022-09-30T14:43:18.172Z,100872.50
2022-09-30T14:45:52.923Z,100876.09
2022-09-30T14:48:36.989Z,100870.88
2022-09-30T14:51:18.261Z,100872.69
2022-09-30T14:53:57.301Z,100870.97
2022-09-30T14:56:31.507Z,100865.75
2022-09-30T14:59:00.749Z,100864.03
2022-09-30T15:01:34.416Z,100865.94
2022-09-30T15:04:15.603Z,100864.31
2022-09-30T15:06:51.296Z,100860.78
2022-09-30T15:09:33.646Z,100866.88
2022-09-30T15:12:22.036Z,100873.09
2022-09-30T15:14:59.993Z,100875.81
2022-09-30T15:17:38.187Z,100876.69
2022-09-30T15:20:23.997Z,100875.03
2022-09-30T15:22:55.148Z,100871.59
2022-09-30T15:25:22.863Z,100873.34
2022-09-30T15:27:50.267Z,100876.03
2022-09-30T15:30:19.782Z,100868.13
2022-09-30T15:32:50.316Z,100869.94
2022-09-30T15:35:23.433Z,100874.47
2022-09-30T15:37:51.781Z,100870.97
2022-09-30T15:40:41.055Z,100873.53
2022-09-30T15:43:11.789Z,100877.19
2022-09-30T15:45:44.314Z,100880.78
2022-09-30T15:48:26.436Z,100876.47
2022-09-30T15:51:01.321Z,100882.72
2022-09-30T15:53:47.176Z,100880.16
2022-09-30T15:56:20.181Z,100881.09
2022-09-30T15:59:07.809Z,100881.19
2022-09-30T16:01:39.440Z,100882.09
2022-09-30T16:04:15.252Z,100880.44
2022-09-30T16:06:48.629Z,100883.94
2022-09-30T16:09:21.196Z,100882.25
2022-09-30T16:12:14.406Z,100881.44
2022-09-30T16:14:53.790Z,100879.81
2022-09-30T16:17:37.921Z,100877.22
2022-09-30T16:20:20.760Z,100875.53
2022-09-30T16:22:48.106Z,100880.88
2022-09-30T16:25:28.032Z,100887.16
2022-09-30T16:28:12.248Z,100889.03
2022-09-30T16:31:07.231Z,100883.03
2022-09-30T16:33:39.913Z,100891.03
2022-09-30T16:36:09.171Z,100884.13
2022-09-30T16:38:36.160Z,100874.63
2022-09-30T16:41:06.560Z,100871.16
2022-09-30T16:43:33.974Z,100882.69
2022-09-30T16:46:00.918Z,100883.72
2022-09-30T16:48:27.913Z,100886.56
2022-09-30T16:51:14.407Z,100888.41
2022-09-30T16:53:44.416Z,100876.28
2022-09-30T16:56:18.240Z,100886.88
2022-09-30T16:58:46.395Z,100883.53
2022-09-30T17:01:20.705Z,100885.34
2022-09-30T17:03:47.930Z,100886.28
2022-09-30T17:06:20.575Z,100883.75
2022-09-30T17:08:50.486Z,100880.34
2022-09-30T17:11:17.720Z,100883.94
2022-09-30T17:13:45.061Z,100884.91
2022-09-30T17:16:12.479Z,100883.25
2022-09-30T17:18:40.228Z,100878.97
2022-09-30T17:21:07.091Z,100884.34
2022-09-30T17:23:34.061Z,100879.22
2022-09-30T17:26:05.544Z,100887.25
2022-09-30T17:28:34.640Z,100888.22
2022-09-30T17:31:02.371Z,100884.00
2022-09-30T17:33:34.695Z,100881.50
2022-09-30T17:36:06.044Z,100882.47
2022-09-30T17:38:34.151Z,100871.19
2022-09-30T17:41:19.945Z,100878.28
2022-09-30T17:43:47.037Z,100880.09
2022-09-30T17:46:18.894Z,100884.56
2022-09-30T17:48:46.680Z,100873.31
2022-09-30T17:51:16.281Z,100873.38
2022-09-30T17:53:44.600Z,100877.88
2022-09-30T17:56:23.176Z,100876.22
2022-09-30T17:58:50.912Z,100881.59
2022-09-30T18:01:20.676Z,100885.19
2022-09-30T18:03:53.448Z,100880.03
2022-09-30T18:06:20.904Z,100877.47
2022-09-30T18:08:51.671Z,100862.69
2022-09-30T18:11:27.454Z,100874.97
2022-09-30T18:13:57.670Z,100872.41
2022-09-30T18:16:31.253Z,100874.25
2022-09-30T18:19:04.548Z,100869.94
2022-09-30T18:21:33.608Z,100873.53
2022-09-30T18:24:01.528Z,100868.38
2022-09-30T18:26:33.198Z,100872.75
2022-09-30T18:29:02.676Z,100871.09
2022-09-30T18:31:36.775Z,100868.56
2022-09-30T18:34:05.966Z,100869.50
2022-09-30T18:36:32.959Z,100868.69
2022-09-30T18:39:02.091Z,100872.28
2022-09-30T18:41:31.815Z,100873.22
2022-09-30T18:44:02.565Z,100868.00
2022-09-30T18:46:31.361Z,100873.28
2022-09-30T18:48:58.522Z,100872.47
2022-09-30T18:51:25.819Z,100871.63
2022-09-30T18:53:58.652Z,100876.03
2022-09-30T18:56:31.685Z,100870.00
2022-09-30T18:59:00.459Z,100871.78
2022-09-30T19:01:27.808Z,100875.34
2022-09-30T19:03:54.852Z,100871.84
2022-09-30T19:06:21.900Z,100869.28
2022-09-30T19:08:48.998Z,100870.19
2022-09-30T19:11:17.535Z,100867.66
2022-09-30T19:13:47.878Z,100874.63
2022-09-30T19:16:18.626Z,100877.28
2022-09-30T19:18:46.906Z,100874.69
2022-09-30T19:21:20.077Z,100872.09
2022-09-30T19:23:47.666Z,100879.09
2022-09-30T19:26:15.654Z,100878.22
2022-09-30T19:28:42.742Z,100879.16
2022-09-30T19:31:16.936Z,100884.38
2022-09-30T19:33:56.233Z,100881.78
2022-09-30T19:36:25.437Z,100878.28
2022-09-30T19:39:04.797Z,100889.66
2022-09-30T19:41:35.708Z,100887.03
2022-09-30T19:44:03.077Z,100876.63
2022-09-30T19:46:30.122Z,100884.47
2022-09-30T19:48:57.274Z,100889.72
2022-09-30T19:51:24.667Z,100885.34
2022-09-30T19:54:03.566Z,100893.19
2022-09-30T19:56:36.254Z,100888.81
2022-09-30T19:59:03.987Z,100881.88
2022-09-30T20:01:34.148Z,100881.84
2022-09-30T20:04:04.746Z,100887.09
2022-09-30T20:06:32.968Z,100876.69
2022-09-30T20:09:02.279Z,100890.63
2022-09-30T20:11:35.936Z,100892.38
2022-09-30T20:14:25.891Z,100881.91
2022-09-30T20:16:54.205Z,100874.97
2022-09-30T20:19:22.373Z,100879.31
2022-09-30T20:21:50.089Z,100863.66
2022-09-30T20:24:19.364Z,100877.59
2022-09-30T20:26:47.325Z,100874.13
2022-09-30T20:29:14.628Z,100873.25
2022-09-30T20:31:42.992Z,100871.53
2022-09-30T20:34:16.297Z,100870.66
2022-09-30T20:36:44.068Z,100866.31
2022-09-30T20:39:11.154Z,100863.72
2022-09-30T20:41:39.653Z,100870.69
2022-09-30T20:44:11.778Z,100857.66
2022-09-30T20:46:40.044Z,100856.78
2022-09-30T20:49:07.176Z,100849.78
2022-09-30T20:51:34.566Z,100842.84
2022-09-30T20:54:01.693Z,100842.00
2022-09-30T20:56:44.105Z,100842.84
2022-09-30T20:59:17.101Z,100848.97
2022-09-30T21:01:44.101Z,100846.34
2022-09-30T21:04:11.130Z,100839.38
2022-09-30T21:06:38.000Z,100845.47
2022-09-30T21:09:05.505Z,100842.88
2022-09-30T21:11:33.419Z,100847.22
2022-09-30T21:14:00.680Z,100838.53
2022-09-30T21:16:29.470Z,100842.00
2022-09-30T21:18:56.553Z,100841.09
2022-09-30T21:21:24.735Z,100840.25
2022-09-30T21:23:58.676Z,100839.34
2022-09-30T21:26:26.567Z,100839.34
2022-09-30T21:28:53.628Z,100832.41
2022-09-30T21:31:24.797Z,100832.41
2022-09-30T21:33:58.442Z,100826.31
2022-09-30T21:36:27.418Z,100835.88
2022-09-30T21:38:54.898Z,100820.19
2022-09-30T21:41:22.857Z,100821.09
2022-09-30T21:43:49.784Z,100824.56
2022-09-30T21:46:18.404Z,100831.53
2022-09-30T21:48:46.104Z,100830.66
2022-09-30T21:51:13.837Z,100830.66
2022-09-30T21:53:41.087Z,100820.19
2022-09-30T21:56:11.480Z,100828.94
2022-09-30T21:58:38.530Z,100821.97
2022-09-30T22:01:06.998Z,100827.16
2022-09-30T22:03:38.692Z,100832.38
2022-09-30T22:06:08.249Z,100826.31
2022-09-30T22:08:39.950Z,100816.72
2022-09-30T22:11:17.208Z,100832.38
2022-09-30T22:13:45.903Z,100833.28
2022-09-30T22:16:15.333Z,100831.50
2022-09-30T22:18:43.174Z,100826.28
2022-09-30T22:21:13.917Z,100825.44
2022-09-30T22:23:41.168Z,100822.81
2022-09-30T22:26:18.550Z,100816.75
2022-09-30T22:28:47.324Z,100821.06
2022-09-30T22:31:20.990Z,100830.63
2022-09-30T22:34:08.285Z,100826.28
2022-09-30T22:36:54.163Z,100833.25
2022-09-30T22:39:22.315Z,100830.66
2022-09-30T22:41:53.010Z,100826.28
2022-09-30T22:44:21.550Z,100826.31
2022-09-30T22:46:48.439Z,100820.19
2022-09-30T22:49:15.294Z,100821.09
2022-09-30T22:51:42.173Z,100821.94
2022-09-30T22:54:09.116Z,100810.63
2022-09-30T22:56:36.035Z,100812.34
2022-09-30T22:59:02.933Z,100801.06
2022-09-30T23:01:31.678Z,100809.78
2022-09-30T23:03:59.090Z,100803.69
2022-09-30T23:06:26.134Z,100803.69
2022-09-30T23:08:54.539Z,100800.19
2022-09-30T23:11:23.239Z,100796.72
2022-09-30T23:13:52.591Z,100808.00
2022-09-30T23:16:21.710Z,100800.19
2022-09-30T23:18:48.592Z,100789.75
2022-09-30T23:21:18.592Z,100787.16
2022-09-30T23:23:46.783Z,100788.91
2022-09-30T23:26:21.439Z,100784.53
2022-09-30T23:28:49.242Z,100785.41
2022-09-30T23:31:17.984Z,100777.59
2022-09-30T23:33:49.095Z,100774.97
2022-09-30T23:36:20.656Z,100778.47
2022-09-30T23:38:47.979Z,100766.25
2022-09-30T23:41:14.953Z,100772.38
2022-09-30T23:43:48.244Z,100758.47
2022-09-30T23:46:17.318Z,100762.81
2022-09-30T23:48:46.807Z,100760.19
2022-09-30T23:51:14.399Z,100757.59
2022-09-30T23:53:42.481Z,100759.31
2022-09-30T23:56:17.953Z,100754.97
2022-09-30T23:58:47.772Z,100747.16
